Quartz Hill, California
Current Conditions -  °F | °C
As of 2:53 AM on Tuesday 21 Oct 2014 (Local Time) from KPMD Reporting Station
Clear Clear  
Wind Chill: 14°   Ceiling: Unl
Heat Index: 14°   Visibility: 10mi
Dew Point:   Wind: 18mph
Humidity: 74%   Direction: 300°WNW
Pressure: 29.98"   Gusts: NA
Location:  34.5959°N, 118.235°W
Report Text: KPMD 210953Z 30016KT 10SM CLR 14/09 A2998 RMK AO2 PK WND 30026/0859 SLP129 T01390094
Loading
Personal Weather Stations






























Interactive Weather Map
Tropical Storm Tracking
New forecast layout! Learn more

10-Day Weather Forecast

Advertisements
Track Severe Weather on mobile